sensor_id;sensor_type;location;lat;lon;timestamp;pressure;altitude;pressure_sealevel;temperature;humidity
42601;BME280;28229;48.856;9.088;2023-05-12T00:01:33;97669.09;;;10.86;100.00
42601;BME280;28229;48.856;9.088;2023-05-12T00:03:59;97663.50;;;10.83;100.00
42601;BME280;28229;48.856;9.088;2023-05-12T00:06:26;97663.50;;;10.83;100.00
42601;BME280;28229;48.856;9.088;2023-05-12T00:08:52;97651.34;;;10.82;100.00
42601;BME280;28229;48.856;9.088;2023-05-12T00:11:18;97653.53;;;10.85;100.00
42601;BME280;28229;48.856;9.088;2023-05-12T00:13:44;97651.72;;;10.85;100.00
42601;BME280;28229;48.856;9.088;2023-05-12T00:16:10;97648.50;;;10.83;100.00
42601;BME280;28229;48.856;9.088;2023-05-12T00:18:36;97650.47;;;10.88;100.00
42601;BME280;28229;48.856;9.088;2023-05-12T00:21:03;97649.44;;;10.89;100.00
42601;BME280;28229;48.856;9.088;2023-05-12T00:23:29;97645.78;;;10.90;100.00
42601;BME280;28229;48.856;9.088;2023-05-12T00:25:55;97636.84;;;10.91;100.00
42601;BME280;28229;48.856;9.088;2023-05-12T00:28:22;97645.78;;;10.90;100.00
42601;BME280;28229;48.856;9.088;2023-05-12T00:30:48;97643.56;;;10.87;100.00
42601;BME280;28229;48.856;9.088;2023-05-12T00:33:14;97641.28;;;10.79;100.00
42601;BME280;28229;48.856;9.088;2023-05-12T00:35:42;97642.19;;;10.73;100.00
42601;BME280;28229;48.856;9.088;2023-05-12T00:38:13;97641.28;;;10.79;100.00
42601;BME280;28229;48.856;9.088;2023-05-12T00:40:39;97646.56;;;10.79;100.00
42601;BME280;28229;48.856;9.088;2023-05-12T00:43:06;97628.94;;;10.79;100.00
42601;BME280;28229;48.856;9.088;2023-05-12T00:45:34;97641.16;;;10.74;100.00
42601;BME280;28229;48.856;9.088;2023-05-12T00:48:01;97639.31;;;10.74;100.00
42601;BME280;28229;48.856;9.088;2023-05-12T00:50:28;97637.81;;;10.66;100.00
42601;BME280;28229;48.856;9.088;2023-05-12T00:52:54;97639.66;;;10.66;100.00
42601;BME280;28229;48.856;9.088;2023-05-12T00:55:22;97639.31;;;10.62;100.00
42601;BME280;28229;48.856;9.088;2023-05-12T00:57:48;97647.19;;;10.62;100.00
42601;BME280;28229;48.856;9.088;2023-05-12T01:00:26;97646.72;;;10.65;100.00
42601;BME280;28229;48.856;9.088;2023-05-12T01:02:54;97642.28;;;10.66;100.00
42601;BME280;28229;48.856;9.088;2023-05-12T01:05:32;97636.44;;;10.64;100.00
42601;BME280;28229;48.856;9.088;2023-05-12T01:08:02;97639.41;;;10.67;100.00
42601;BME280;28229;48.856;9.088;2023-05-12T01:10:28;97638.97;;;10.71;100.00
42601;BME280;28229;48.856;9.088;2023-05-12T01:12:54;97646.66;;;10.72;100.00
42601;BME280;28229;48.856;9.088;2023-05-12T01:15:20;97643.22;;;10.72;100.00
42601;BME280;28229;48.856;9.088;2023-05-12T01:17:52;97645.84;;;10.72;100.00
42601;BME280;28229;48.856;9.088;2023-05-12T01:20:35;97643.78;;;10.74;100.00
42601;BME280;28229;48.856;9.088;2023-05-12T01:23:04;97644.69;;;10.67;100.00
42601;BME280;28229;48.856;9.088;2023-05-12T01:25:36;97642.19;;;10.73;100.00
42601;BME280;28229;48.856;9.088;2023-05-12T01:28:04;97641.03;;;10.69;100.00
42601;BME280;28229;48.856;9.088;2023-05-12T01:30:32;97638.97;;;10.71;100.00
42601;BME280;28229;48.856;9.088;2023-05-12T01:33:00;97635.09;;;10.73;100.00
42601;BME280;28229;48.856;9.088;2023-05-12T01:35:27;97632.13;;;10.70;100.00
42601;BME280;28229;48.856;9.088;2023-05-12T01:37:59;97638.41;;;10.69;100.00
42601;BME280;28229;48.856;9.088;2023-05-12T01:40:25;97636.22;;;10.65;100.00
42601;BME280;28229;48.856;9.088;2023-05-12T01:42:53;97635.06;;;10.61;100.00
42601;BME280;28229;48.856;9.088;2023-05-12T01:45:20;97634.72;;;10.58;100.00
42601;BME280;28229;48.856;9.088;2023-05-12T01:47:47;97632.28;;;10.56;100.00
42601;BME280;28229;48.856;9.088;2023-05-12T01:50:13;97636.19;;;10.54;100.00
42601;BME280;28229;48.856;9.088;2023-05-12T01:52:39;97642.31;;;10.47;100.00
42601;BME280;28229;48.856;9.088;2023-05-12T01:55:10;97635.63;;;10.52;100.00
42601;BME280;28229;48.856;9.088;2023-05-12T01:57:43;97640.19;;;10.56;100.00
42601;BME280;28229;48.856;9.088;2023-05-12T02:00:10;97641.44;;;10.54;100.00
42601;BME280;28229;48.856;9.088;2023-05-12T02:02:40;97643.09;;;10.66;100.00
42601;BME280;28229;48.856;9.088;2023-05-12T02:05:08;97637.47;;;10.63;100.00
42601;BME280;28229;48.856;9.088;2023-05-12T02:07:35;97637.78;;;10.55;100.00
42601;BME280;28229;48.856;9.088;2023-05-12T02:10:02;97640.63;;;10.53;100.00
42601;BME280;28229;48.856;9.088;2023-05-12T02:12:28;97643.88;;;10.55;100.00
42601;BME280;28229;48.856;9.088;2023-05-12T02:14:55;97634.94;;;10.56;100.00
42601;BME280;28229;48.856;9.088;2023-05-12T02:17:21;97636.31;;;10.59;100.00
42601;BME280;28229;48.856;9.088;2023-05-12T02:19:50;97637.00;;;10.54;100.00
42601;BME280;28229;48.856;9.088;2023-05-12T02:22:16;97631.50;;;10.56;100.00
42601;BME280;28229;48.856;9.088;2023-05-12T02:24:43;97634.50;;;10.59;100.00
42601;BME280;28229;48.856;9.088;2023-05-12T02:27:09;97641.59;;;10.59;100.00
42601;BME280;28229;48.856;9.088;2023-05-12T02:29:36;97633.56;;;10.54;100.00
42601;BME280;28229;48.856;9.088;2023-05-12T02:32:04;97630.56;;;10.50;100.00
42601;BME280;28229;48.856;9.088;2023-05-12T02:34:30;97638.25;;;10.52;100.00
42601;BME280;28229;48.856;9.088;2023-05-12T02:36:57;97638.47;;;10.50;100.00
42601;BME280;28229;48.856;9.088;2023-05-12T02:39:23;97634.78;;;10.51;100.00
42601;BME280;28229;48.856;9.088;2023-05-12T02:41:49;97629.41;;;10.46;100.00
42601;BME280;28229;48.856;9.088;2023-05-12T02:44:16;97629.63;;;10.44;100.00
42601;BME280;28229;48.856;9.088;2023-05-12T02:46:42;97627.81;;;10.45;100.00
42601;BME280;28229;48.856;9.088;2023-05-12T02:49:11;97630.44;;;10.45;100.00
42601;BME280;28229;48.856;9.088;2023-05-12T02:51:38;97632.03;;;10.46;100.00
42601;BME280;28229;48.856;9.088;2023-05-12T02:54:04;97631.00;;;10.47;100.00
42601;BME280;28229;48.856;9.088;2023-05-12T02:56:31;97632.03;;;10.46;100.00
42601;BME280;28229;48.856;9.088;2023-05-12T02:58:57;97619.44;;;10.48;100.00
42601;BME280;28229;48.856;9.088;2023-05-12T03:01:23;97626.91;;;10.51;100.00
42601;BME280;28229;48.856;9.088;2023-05-12T03:03:49;97619.44;;;10.48;100.00
42601;BME280;28229;48.856;9.088;2023-05-12T03:06:16;97618.56;;;10.54;100.00
42601;BME280;28229;48.856;9.088;2023-05-12T03:08:42;97622.09;;;10.48;100.00
42601;BME280;28229;48.856;9.088;2023-05-12T03:11:08;97627.59;;;10.46;100.00
42601;BME280;28229;48.856;9.088;2023-05-12T03:13:34;97635.34;;;10.41;100.00
42601;BME280;28229;48.856;9.088;2023-05-12T03:16:01;97630.44;;;10.45;100.00
42601;BME280;28229;48.856;9.088;2023-05-12T03:18:27;97628.81;;;10.44;100.00
42601;BME280;28229;48.856;9.088;2023-05-12T03:20:54;97628.81;;;10.44;100.00
42601;BME280;28229;48.856;9.088;2023-05-12T03:23:22;97632.25;;;10.44;100.00
42601;BME280;28229;48.856;9.088;2023-05-12T03:25:49;97637.63;;;10.38;100.00
42601;BME280;28229;48.856;9.088;2023-05-12T03:28:15;97635.34;;;10.41;100.00
42601;BME280;28229;48.856;9.088;2023-05-12T03:30:41;97631.91;;;10.41;100.00
42601;BME280;28229;48.856;9.088;2023-05-12T03:33:07;97638.19;;;10.40;100.00
42601;BME280;28229;48.856;9.088;2023-05-12T03:35:34;97645.94;;;10.35;100.00
42601;BME280;28229;48.856;9.088;2023-05-12T03:38:04;97635.56;;;10.40;100.00
42601;BME280;28229;48.856;9.088;2023-05-12T03:40:30;97636.44;;;10.34;100.00
42601;BME280;28229;48.856;9.088;2023-05-12T03:42:56;97643.75;;;10.32;100.00
42601;BME280;28229;48.856;9.088;2023-05-12T03:45:22;97637.47;;;10.33;100.00
42601;BME280;28229;48.856;9.088;2023-05-12T03:47:48;97629.44;;;10.27;100.00
42601;BME280;28229;48.856;9.088;2023-05-12T03:50:15;97626.22;;;10.25;100.00
42601;BME280;28229;48.856;9.088;2023-05-12T03:52:41;97632.63;;;10.29;100.00
42601;BME280;28229;48.856;9.088;2023-05-12T03:55:07;97633.81;;;10.34;100.00
42601;BME280;28229;48.856;9.088;2023-05-12T03:57:34;97634.16;;;10.37;100.00
42601;BME280;28229;48.856;9.088;2023-05-12T04:00:06;97625.94;;;10.34;100.00
42601;BME280;28229;48.856;9.088;2023-05-12T04:02:38;97624.91;;;10.35;100.00
42601;BME280;28229;48.856;9.088;2023-05-12T04:05:07;97625.03;;;10.40;100.00
42601;BME280;28229;48.856;9.088;2023-05-12T04:07:33;97620.22;;;10.37;100.00
42601;BME280;28229;48.856;9.088;2023-05-12T04:09:59;97623.00;;;10.42;100.00
42601;BME280;28229;48.856;9.088;2023-05-12T04:12:26;97623.00;;;10.42;100.00
42601;BME280;28229;48.856;9.088;2023-05-12T04:14:52;97616.25;;;10.46;100.00
42601;BME280;28229;48.856;9.088;2023-05-12T04:17:18;97615.53;;;10.39;100.00
42601;BME280;28229;48.856;9.088;2023-05-12T04:19:45;97621.50;;;10.46;100.00
42601;BME280;28229;48.856;9.088;2023-05-12T04:22:12;97624.72;;;10.48;100.00
42601;BME280;28229;48.856;9.088;2023-05-12T04:24:38;97621.88;;;10.50;100.00
42601;BME280;28229;48.856;9.088;2023-05-12T04:27:05;97629.41;;;10.46;100.00
42601;BME280;28229;48.856;9.088;2023-05-12T04:29:32;97629.03;;;10.42;100.00
42601;BME280;28229;48.856;9.088;2023-05-12T04:31:58;97631.53;;;10.37;100.00
42601;BME280;28229;48.856;9.088;2023-05-12T04:34:25;97635.22;;;10.48;100.00
42601;BME280;28229;48.856;9.088;2023-05-12T04:36:52;97637.66;;;10.50;100.00
42601;BME280;28229;48.856;9.088;2023-05-12T04:39:19;97639.13;;;10.45;100.00
42601;BME280;28229;48.856;9.088;2023-05-12T04:41:45;97649.88;;;10.44;100.00
42601;BME280;28229;48.856;9.088;2023-05-12T04:44:12;97651.00;;;10.48;100.00
42601;BME280;28229;48.856;9.088;2023-05-12T04:46:39;97648.78;;;10.52;100.00
42601;BME280;28229;48.856;9.088;2023-05-12T04:49:05;97646.00;;;10.46;100.00
42601;BME280;28229;48.856;9.088;2023-05-12T04:51:31;97645.31;;;10.51;100.00
42601;BME280;28229;48.856;9.088;2023-05-12T04:54:00;97647.94;;;10.51;100.00
42601;BME280;28229;48.856;9.088;2023-05-12T04:56:27;97651.28;;;10.58;100.00
42601;BME280;28229;48.856;9.088;2023-05-12T04:58:54;97657.59;;;10.57;100.00
42601;BME280;28229;48.856;9.088;2023-05-12T05:01:21;97652.19;;;10.52;100.00
42601;BME280;28229;48.856;9.088;2023-05-12T05:03:48;97651.84;;;10.60;100.00
42601;BME280;28229;48.856;9.088;2023-05-12T05:06:14;97659.31;;;10.63;100.00
42601;BME280;28229;48.856;9.088;2023-05-12T05:08:40;97654.06;;;10.63;100.00
42601;BME280;28229;48.856;9.088;2023-05-12T05:11:06;97659.44;;;10.69;100.00
42601;BME280;28229;48.856;9.088;2023-05-12T05:13:32;97662.50;;;10.65;100.00
42601;BME280;28229;48.856;9.088;2023-05-12T05:15:59;97654.13;;;10.57;100.00
42601;BME280;28229;48.856;9.088;2023-05-12T05:18:25;97650.06;;;10.61;100.00
42601;BME280;28229;48.856;9.088;2023-05-12T05:20:54;97655.81;;;10.70;100.00
42601;BME280;28229;48.856;9.088;2023-05-12T05:23:20;97657.38;;;10.71;100.00
42601;BME280;28229;48.856;9.088;2023-05-12T05:25:51;97660.59;;;10.73;100.00
42601;BME280;28229;48.856;9.088;2023-05-12T05:28:24;97657.72;;;10.62;100.00
42601;BME280;28229;48.856;9.088;2023-05-12T05:31:19;97663.00;;;10.62;100.00
42601;BME280;28229;48.856;9.088;2023-05-12T05:33:46;97667.34;;;10.69;100.00
42601;BME280;28229;48.856;9.088;2023-05-12T05:36:18;97665.16;;;10.65;100.00
42601;BME280;28229;48.856;9.088;2023-05-12T05:38:46;97669.06;;;10.75;100.00
42601;BME280;28229;48.856;9.088;2023-05-12T05:41:20;97676.84;;;10.70;100.00
42601;BME280;28229;48.856;9.088;2023-05-12T05:43:48;97678.22;;;10.72;100.00
42601;BME280;28229;48.856;9.088;2023-05-12T05:46:23;97680.28;;;10.70;100.00
42601;BME280;28229;48.856;9.088;2023-05-12T05:48:52;97679.72;;;10.80;100.00
42601;BME280;28229;48.856;9.088;2023-05-12T05:51:20;97678.47;;;10.82;100.00
42601;BME280;28229;48.856;9.088;2023-05-12T05:53:52;97676.19;;;10.86;100.00
42601;BME280;28229;48.856;9.088;2023-05-12T05:56:24;97679.53;;;10.93;100.00
42601;BME280;28229;48.856;9.088;2023-05-12T05:59:31;97671.19;;;10.96;100.00
42601;BME280;28229;48.856;9.088;2023-05-12T06:02:10;97676.91;;;11.05;100.00
42601;BME280;28229;48.856;9.088;2023-05-12T06:04:39;97672.81;;;11.09;100.00
42601;BME280;28229;48.856;9.088;2023-05-12T06:07:05;97672.72;;;11.16;100.00
42601;BME280;28229;48.856;9.088;2023-05-12T06:09:34;97675.81;;;11.13;100.00
42601;BME280;28229;48.856;9.088;2023-05-12T06:12:00;97684.28;;;11.15;100.00
42601;BME280;28229;48.856;9.088;2023-05-12T06:14:28;97685.53;;;11.24;100.00
42601;BME280;28229;48.856;9.088;2023-05-12T06:16:58;97680.28;;;11.24;100.00
42601;BME280;28229;48.856;9.088;2023-05-12T06:19:24;97690.34;;;11.27;100.00
42601;BME280;28229;48.856;9.088;2023-05-12T06:21:50;97694.56;;;11.28;100.00
42601;BME280;28229;48.856;9.088;2023-05-12T06:24:19;97693.13;;;11.32;100.00
42601;BME280;28229;48.856;9.088;2023-05-12T06:26:45;97690.13;;;11.40;100.00
42601;BME280;28229;48.856;9.088;2023-05-12T06:29:11;97688.88;;;11.43;100.00
42601;BME280;28229;48.856;9.088;2023-05-12T06:31:38;97691.06;;;11.46;100.00
42601;BME280;28229;48.856;9.088;2023-05-12T06:34:04;97698.03;;;11.52;100.00
42601;BME280;28229;48.856;9.088;2023-05-12T06:36:30;97701.59;;;11.58;100.00
42601;BME280;28229;48.856;9.088;2023-05-12T06:38:56;97701.59;;;11.58;100.00
42601;BME280;28229;48.856;9.088;2023-05-12T06:41:25;97694.94;;;11.67;100.00
42601;BME280;28229;48.856;9.088;2023-05-12T06:43:56;97694.94;;;11.67;100.00
42601;BME280;28229;48.856;9.088;2023-05-12T06:46:29;97697.56;;;11.67;100.00
42601;BME280;28229;48.856;9.088;2023-05-12T06:48:58;97703.19;;;11.82;100.00
42601;BME280;28229;48.856;9.088;2023-05-12T06:51:34;97693.47;;;11.71;100.00
42601;BME280;28229;48.856;9.088;2023-05-12T06:54:01;97701.56;;;11.81;100.00
42601;BME280;28229;48.856;9.088;2023-05-12T06:56:30;97702.16;;;11.84;100.00
42601;BME280;28229;48.856;9.088;2023-05-12T06:58:59;97697.81;;;11.89;100.00
42601;BME280;28229;48.856;9.088;2023-05-12T07:01:37;97703.44;;;11.93;100.00
42601;BME280;28229;48.856;9.088;2023-05-12T07:04:08;97705.38;;;11.97;100.00
42601;BME280;28229;48.856;9.088;2023-05-12T07:06:34;97700.44;;;12.01;100.00
42601;BME280;28229;48.856;9.088;2023-05-12T07:09:00;97705.16;;;11.99;100.00
42601;BME280;28229;48.856;9.088;2023-05-12T07:11:32;97704.69;;;12.02;100.00
42601;BME280;28229;48.856;9.088;2023-05-12T07:13:58;97693.06;;;12.27;100.00
42601;BME280;28229;48.856;9.088;2023-05-12T07:16:29;97701.59;;;12.46;100.00
42601;BME280;28229;48.856;9.088;2023-05-12T07:18:55;97698.91;;;12.57;100.00
42601;BME280;28229;48.856;9.088;2023-05-12T07:21:21;97699.72;;;12.58;97.98
42601;BME280;28229;48.856;9.088;2023-05-12T07:23:48;97694.28;;;12.65;99.22
42601;BME280;28229;48.856;9.088;2023-05-12T07:26:14;97698.97;;;12.74;96.98
42601;BME280;28229;48.856;9.088;2023-05-12T07:28:43;97699.78;;;12.75;95.16
42601;BME280;28229;48.856;9.088;2023-05-12T07:31:09;97699.44;;;12.71;93.16
42601;BME280;28229;48.856;9.088;2023-05-12T07:33:35;97705.03;;;12.75;93.09
42601;BME280;28229;48.856;9.088;2023-05-12T07:36:02;97698.47;;;12.77;94.06
42601;BME280;28229;48.856;9.088;2023-05-12T07:38:35;97697.78;;;12.82;94.35
42601;BME280;28229;48.856;9.088;2023-05-12T07:41:02;97696.25;;;12.86;94.25
42601;BME280;28229;48.856;9.088;2023-05-12T07:43:33;97700.66;;;12.98;94.25
42601;BME280;28229;48.856;9.088;2023-05-12T07:46:09;97688.94;;;13.05;94.06
42601;BME280;28229;48.856;9.088;2023-05-12T07:48:37;97699.91;;;13.14;93.77
42601;BME280;28229;48.856;9.088;2023-05-12T07:51:05;97701.09;;;13.23;93.91
42601;BME280;28229;48.856;9.088;2023-05-12T07:53:32;97694.72;;;13.19;93.83
42601;BME280;28229;48.856;9.088;2023-05-12T07:55:58;97700.47;;;13.16;92.36
42601;BME280;28229;48.856;9.088;2023-05-12T07:58:24;97701.06;;;12.89;92.81
42601;BME280;28229;48.856;9.088;2023-05-12T08:00:51;97698.03;;;12.98;94.46
42601;BME280;28229;48.856;9.088;2023-05-12T08:03:20;97699.56;;;12.93;94.76
42601;BME280;28229;48.856;9.088;2023-05-12T08:05:57;97695.69;;;12.84;94.56
42601;BME280;28229;48.856;9.088;2023-05-12T08:08:24;97694.69;;;12.85;94.66
42601;BME280;28229;48.856;9.088;2023-05-12T08:10:50;97701.06;;;12.89;94.49
42601;BME280;28229;48.856;9.088;2023-05-12T08:13:16;97698.44;;;12.89;93.62
42601;BME280;28229;48.856;9.088;2023-05-12T08:15:48;97693.00;;;12.96;93.27
42601;BME280;28229;48.856;9.088;2023-05-12T08:18:34;97701.16;;;12.94;92.70
42601;BME280;28229;48.856;9.088;2023-05-12T08:21:11;97696.75;;;13.00;91.94
42601;BME280;28229;48.856;9.088;2023-05-12T08:23:37;97696.38;;;13.08;91.31
42601;BME280;28229;48.856;9.088;2023-05-12T08:26:08;97699.34;;;13.12;90.63
42601;BME280;28229;48.856;9.088;2023-05-12T08:28:34;97696.63;;;13.24;90.21
42601;BME280;28229;48.856;9.088;2023-05-12T08:31:01;97701.72;;;13.42;90.52
42601;BME280;28229;48.856;9.088;2023-05-12T08:33:27;97697.56;;;13.68;88.55
42601;BME280;28229;48.856;9.088;2023-05-12T08:35:54;97700.81;;;13.93;87.23
42601;BME280;28229;48.856;9.088;2023-05-12T08:38:20;97701.63;;;14.15;85.93
42601;BME280;28229;48.856;9.088;2023-05-12T08:41:03;97696.91;;;14.39;83.88
42601;BME280;28229;48.856;9.088;2023-05-12T08:43:41;97702.16;;;14.83;81.33
42601;BME280;28229;48.856;9.088;2023-05-12T08:46:08;97694.13;;;15.06;80.24
42601;BME280;28229;48.856;9.088;2023-05-12T08:48:37;97700.53;;;15.10;77.52
42601;BME280;28229;48.856;9.088;2023-05-12T08:51:08;97700.13;;;15.23;75.88
42601;BME280;28229;48.856;9.088;2023-05-12T08:53:37;97701.50;;;15.31;74.47
42601;BME280;28229;48.856;9.088;2023-05-12T08:56:05;97704.63;;;15.22;73.53
42601;BME280;28229;48.856;9.088;2023-05-12T08:58:33;97703.50;;;15.18;75.77
42601;BME280;28229;48.856;9.088;2023-05-12T09:01:02;97705.38;;;15.18;76.46
42601;BME280;28229;48.856;9.088;2023-05-12T09:03:30;97705.38;;;15.18;75.97
42601;BME280;28229;48.856;9.088;2023-05-12T09:05:57;97712.25;;;15.14;76.47
42601;BME280;28229;48.856;9.088;2023-05-12T09:08:24;97709.53;;;15.09;75.55
42601;BME280;28229;48.856;9.088;2023-05-12T09:10:55;97714.94;;;14.92;76.43
42601;BME280;28229;48.856;9.088;2023-05-12T09:15:54;97705.84;;;14.82;77.79
42601;BME280;28229;48.856;9.088;2023-05-12T09:18:21;97710.59;;;14.80;77.49
42601;BME280;28229;48.856;9.088;2023-05-12T09:20:47;97704.25;;;14.81;77.75
42601;BME280;28229;48.856;9.088;2023-05-12T09:23:18;97710.41;;;14.87;80.44
42601;BME280;28229;48.856;9.088;2023-05-12T09:25:45;97698.09;;;15.03;78.23
42601;BME280;28229;48.856;9.088;2023-05-12T09:28:11;97707.44;;;15.11;77.57
42601;BME280;28229;48.856;9.088;2023-05-12T09:30:38;97706.13;;;15.13;75.85
42601;BME280;28229;48.856;9.088;2023-05-12T09:33:11;97705.09;;;15.14;74.31
42601;BME280;28229;48.856;9.088;2023-05-12T09:38:09;97702.84;;;15.01;74.92
42601;BME280;28229;48.856;9.088;2023-05-12T09:40:36;97702.09;;;15.06;75.22
42601;BME280;28229;48.856;9.088;2023-05-12T09:43:06;97708.81;;;15.18;75.47
42601;BME280;28229;48.856;9.088;2023-05-12T09:45:33;97700.59;;;15.47;74.74
42601;BME280;28229;48.856;9.088;2023-05-12T09:48:08;97712.84;;;15.58;73.78
42601;BME280;28229;48.856;9.088;2023-05-12T09:50:49;97712.09;;;15.68;73.80
42601;BME280;28229;48.856;9.088;2023-05-12T09:53:17;97704.31;;;15.51;72.66
42601;BME280;28229;48.856;9.088;2023-05-12T09:55:45;97705.94;;;15.57;73.96
42601;BME280;28229;48.856;9.088;2023-05-12T09:58:14;97708.91;;;15.66;73.36
42601;BME280;28229;48.856;9.088;2023-05-12T10:00:40;97707.63;;;15.74;72.62
42601;BME280;28229;48.856;9.088;2023-05-12T10:03:14;97703.50;;;15.83;72.06
42601;BME280;28229;48.856;9.088;2023-05-12T10:05:47;97693.97;;;15.92;72.03
42601;BME280;28229;48.856;9.088;2023-05-12T10:08:25;97702.53;;;16.05;69.66
42601;BME280;28229;48.856;9.088;2023-05-12T10:10:52;97697.00;;;16.16;70.54
42601;BME280;28229;48.856;9.088;2023-05-12T10:13:21;97703.16;;;16.27;71.15
42601;BME280;28229;48.856;9.088;2023-05-12T10:15:48;97706.34;;;16.24;69.95
42601;BME280;28229;48.856;9.088;2023-05-12T10:18:15;97701.84;;;16.30;70.98
42601;BME280;28229;48.856;9.088;2023-05-12T10:20:45;97707.19;;;16.40;70.20
42601;BME280;28229;48.856;9.088;2023-05-12T10:23:12;97706.94;;;16.47;69.62
42601;BME280;28229;48.856;9.088;2023-05-12T10:25:40;97709.06;;;16.45;67.83
42601;BME280;28229;48.856;9.088;2023-05-12T10:28:10;97703.69;;;16.24;66.99
42601;BME280;28229;48.856;9.088;2023-05-12T10:30:37;97704.47;;;16.25;66.97
42601;BME280;28229;48.856;9.088;2023-05-12T10:33:06;97702.16;;;16.39;68.39
42601;BME280;28229;48.856;9.088;2023-05-12T10:35:35;97703.69;;;16.34;69.28
42601;BME280;28229;48.856;9.088;2023-05-12T10:38:13;97705.81;;;16.22;68.25
42601;BME280;28229;48.856;9.088;2023-05-12T10:40:58;97710.00;;;16.13;68.95
42601;BME280;28229;48.856;9.088;2023-05-12T10:43:28;97708.38;;;16.07;70.50
42601;BME280;28229;48.856;9.088;2023-05-12T10:49:01;97709.69;;;15.67;70.73
42601;BME280;28229;48.856;9.088;2023-05-12T10:51:46;97702.66;;;15.45;72.27
42601;BME280;28229;48.856;9.088;2023-05-12T10:54:23;97699.56;;;15.53;72.81
42601;BME280;28229;48.856;9.088;2023-05-12T10:56:51;97696.94;;;15.58;72.86
42601;BME280;28229;48.856;9.088;2023-05-12T10:59:20;97705.59;;;15.49;71.59
42601;BME280;28229;48.856;9.088;2023-05-12T11:04:46;97701.66;;;15.51;72.33
42601;BME280;28229;48.856;9.088;2023-05-12T11:07:14;97705.34;;;15.50;72.24
42601;BME280;28229;48.856;9.088;2023-05-12T11:09:43;97707.47;;;15.48;71.67
42601;BME280;28229;48.856;9.088;2023-05-12T11:12:12;97709.66;;;15.56;72.37
42601;BME280;28229;48.856;9.088;2023-05-12T11:14:42;97708.69;;;15.73;73.53
42601;BME280;28229;48.856;9.088;2023-05-12T11:17:09;97716.00;;;15.93;71.67
42601;BME280;28229;48.856;9.088;2023-05-12T11:19:36;97714.69;;;16.01;70.70
42601;BME280;28229;48.856;9.088;2023-05-12T11:22:06;97717.91;;;16.03;70.55
42601;BME280;28229;48.856;9.088;2023-05-12T11:24:32;97717.34;;;15.95;69.88
42601;BME280;28229;48.856;9.088;2023-05-12T11:26:59;97722.41;;;16.02;69.68
42601;BME280;28229;48.856;9.088;2023-05-12T11:29:25;97722.97;;;16.09;67.58
42601;BME280;28229;48.856;9.088;2023-05-12T11:31:52;97725.28;;;15.90;67.47
42601;BME280;28229;48.856;9.088;2023-05-12T11:34:23;97726.59;;;15.93;68.24
42601;BME280;28229;48.856;9.088;2023-05-12T11:36:52;97718.50;;;15.72;68.28
42601;BME280;28229;48.856;9.088;2023-05-12T11:39:25;97718.47;;;15.67;68.14
42601;BME280;28229;48.856;9.088;2023-05-12T11:41:52;97721.88;;;15.63;68.48
42601;BME280;28229;48.856;9.088;2023-05-12T11:44:20;97720.06;;;15.68;69.78
42601;BME280;28229;48.856;9.088;2023-05-12T11:46:57;97727.22;;;15.68;70.29
42601;BME280;28229;48.856;9.088;2023-05-12T11:49:25;97725.56;;;15.56;69.46
42601;BME280;28229;48.856;9.088;2023-05-12T11:51:53;97724.53;;;15.63;69.89
42601;BME280;28229;48.856;9.088;2023-05-12T11:54:20;97733.03;;;15.65;71.06
42601;BME280;28229;48.856;9.088;2023-05-12T11:56:51;97728.66;;;15.48;70.49
42601;BME280;28229;48.856;9.088;2023-05-12T11:59:44;97728.78;;;15.64;70.56
42601;BME280;28229;48.856;9.088;2023-05-12T12:02:21;97728.25;;;15.67;72.65
42601;BME280;28229;48.856;9.088;2023-05-12T12:04:47;97726.16;;;15.64;72.25
42601;BME280;28229;48.856;9.088;2023-05-12T12:07:14;97740.53;;;15.73;74.15
42601;BME280;28229;48.856;9.088;2023-05-12T12:09:40;97734.81;;;15.91;70.90
42601;BME280;28229;48.856;9.088;2023-05-12T12:12:09;97738.88;;;16.04;73.06
42601;BME280;28229;48.856;9.088;2023-05-12T12:14:38;97738.56;;;15.95;70.35
42601;BME280;28229;48.856;9.088;2023-05-12T12:17:06;97735.34;;;15.93;70.00
42601;BME280;28229;48.856;9.088;2023-05-12T12:19:32;97739.25;;;15.80;69.36
42601;BME280;28229;48.856;9.088;2023-05-12T12:21:58;97736.22;;;15.67;68.82
42601;BME280;28229;48.856;9.088;2023-05-12T12:24:25;97742.25;;;15.89;70.55
42601;BME280;28229;48.856;9.088;2023-05-12T12:26:51;97739.63;;;15.94;67.42
42601;BME280;28229;48.856;9.088;2023-05-12T12:29:18;97738.00;;;15.93;66.50
42601;BME280;28229;48.856;9.088;2023-05-12T12:31:51;97742.78;;;15.91;64.74
42601;BME280;28229;48.856;9.088;2023-05-12T12:34:17;97750.28;;;15.99;67.46
42601;BME280;28229;48.856;9.088;2023-05-12T12:36:51;97751.84;;;16.01;64.70
42601;BME280;28229;48.856;9.088;2023-05-12T12:39:17;97750.00;;;16.01;65.09
42601;BME280;28229;48.856;9.088;2023-05-12T12:41:44;97744.44;;;16.03;67.16
42601;BME280;28229;48.856;9.088;2023-05-12T12:44:12;97749.25;;;16.11;65.39
42601;BME280;28229;48.856;9.088;2023-05-12T12:46:39;97743.97;;;16.16;65.57
42601;BME280;28229;48.856;9.088;2023-05-12T12:49:05;97737.66;;;16.22;66.55
42601;BME280;28229;48.856;9.088;2023-05-12T12:51:31;97740.31;;;16.22;66.55
42601;BME280;28229;48.856;9.088;2023-05-12T12:53:58;97748.50;;;16.15;67.33
42601;BME280;28229;48.856;9.088;2023-05-12T12:56:24;97747.72;;;16.15;68.09
42601;BME280;28229;48.856;9.088;2023-05-12T12:58:50;97747.66;;;16.05;67.90
42601;BME280;28229;48.856;9.088;2023-05-12T13:01:17;97742.09;;;16.06;68.67
42601;BME280;28229;48.856;9.088;2023-05-12T13:03:43;97741.41;;;16.31;68.32
42601;BME280;28229;48.856;9.088;2023-05-12T13:06:09;97736.94;;;16.42;68.52
42601;BME280;28229;48.856;9.088;2023-05-12T13:08:36;97739.88;;;16.46;67.45
42601;BME280;28229;48.856;9.088;2023-05-12T13:11:02;97750.66;;;16.24;67.61
42601;BME280;28229;48.856;9.088;2023-05-12T13:13:28;97747.44;;;16.11;68.29